NCAR-RAP Real-Time Weather Data

Output produced by METARs form (10 April 2020  07:20 UTC)
found at http://weather.rap.ucar.edu/surface/
 
KDEN 100653Z 17008KT 10SM FEW050 FEW190 05/M01 A3005 RMK AO2 SLP149 T00501006 401441006
KDEN 100553Z 18017G24KT 10SM FEW050 FEW190 08/M01 A3006 RMK AO2 SLP146 T00831006 10128 20061 58006
KDEN 100453Z 12006KT 10SM BKN055 08/00 A3006 RMK AO2 SLP153 T00780000
KDEN 100353Z 09013KT 10SM BKN060 09/M01 A3008 RMK AO2 SLP162 T00891006
KDEN 100253Z 10008KT 10SM BKN055 08/00 A3008 RMK AO2 SLP171 T00780000 53003
KDEN 100153Z 07007KT 10SM BKN055 BKN100 BKN220 09/01 A3007 RMK AO2 SLP166 T00890006
KDEN 100053Z 08008KT 10SM BKN055 BKN100 12/01 A3007 RMK AO2 SLP164 T01220011
KDEN 092353Z 08004KT 10SM SCT050 13/01 A3007 RMK AO2 SLP162 T01280011 10144 20100 56013
KDEN 092253Z 08007KT 10SM SCT045 13/01 A3007 RMK AO2 SLP163 T01280011
KDEN 092153Z VRB04KT 10SM BKN045 14/01 A3009 RMK AO2 SLP165 T01390011
KDEN 092053Z 04006KT 10SM BKN040 12/01 A3011 RMK AO2 SLP175 T01220011 58014
KDEN 091953Z 04006G16KT 10SM BKN040 12/01 A3013 RMK AO2 SLP182 T01170011
KDEN 091853Z 03012G19KT 10SM BKN035 BKN220 11/01 A3015 RMK AO2 SLP188 T01110006
KDEN 091753Z 02016KT 10SM FEW035 SCT220 11/01 A3016 RMK AO2 SLP187 T01060006 10106 20000 50003
KDEN 091653Z 02011G17KT 10SM FEW090 FEW220 08/01 A3017 RMK AO2 SLP193 T00830006
KDEN 091553Z 36010KT 10SM FEW090 FEW220 06/M01 A3016 RMK AO2 SLP196 T00611006
KDEN 091453Z 36007KT 10SM SCT250 03/M01 A3015 RMK AO2 SLP195 T00281006 53009
KDEN 091353Z 26008KT 10SM FEW100 SCT250 02/M02 A3013 RMK AO2 SLP183 T00221017
KDEN 091253Z 25006KT 10SM FEW100 FEW250 00/M02 A3012 RMK AO2 SLP173 T00001022
KDEN 091153Z 27005KT 10SM FEW250 01/M02 A3012 RMK AO2 SLP168 T00061022 10061 21006 58000
KDEN 091053Z 35008KT 10SM FEW250 00/M02 A3012 RMK AO2 SLP166 T00001022
KDEN 090953Z 34006KT 10SM FEW250 02/M02 A3012 RMK AO2 SLP164 T00171017